sensor_id;sensor_type;location;lat;lon;timestamp;pressure;altitude;pressure_sealevel;temperature;humidity
46756;BME280;32506;52.826;-1.192;2024-01-06T00:02:05;100415.25;;;5.82;72.95
46756;BME280;32506;52.826;-1.192;2024-01-06T00:04:30;100418.72;;;5.83;73.24
46756;BME280;32506;52.826;-1.192;2024-01-06T00:06:56;100420.53;;;5.82;72.85
46756;BME280;32506;52.826;-1.192;2024-01-06T00:09:21;100423.84;;;5.84;72.89
46756;BME280;32506;52.826;-1.192;2024-01-06T00:11:46;100423.00;;;5.84;73.44
46756;BME280;32506;52.826;-1.192;2024-01-06T00:14:12;100417.69;;;5.84;72.80
46756;BME280;32506;52.826;-1.192;2024-01-06T00:16:37;100425.66;;;5.84;72.80
46756;BME280;32506;52.826;-1.192;2024-01-06T00:19:03;100431.81;;;5.84;73.01
46756;BME280;32506;52.826;-1.192;2024-01-06T00:21:28;100432.63;;;5.85;72.96
46756;BME280;32506;52.826;-1.192;2024-01-06T00:23:53;100431.81;;;5.84;73.10
46756;BME280;32506;52.826;-1.192;2024-01-06T00:26:21;100443.22;;;5.85;73.03
46756;BME280;32506;52.826;-1.192;2024-01-06T00:28:46;100447.53;;;5.86;73.26
46756;BME280;32506;52.826;-1.192;2024-01-06T00:31:14;100446.69;;;5.85;72.78
46756;BME280;32506;52.826;-1.192;2024-01-06T00:33:41;100447.34;;;5.87;73.40
46756;BME280;32506;52.826;-1.192;2024-01-06T00:36:07;100451.00;;;5.86;73.29
46756;BME280;32506;52.826;-1.192;2024-01-06T00:38:32;100450.00;;;5.87;73.22
46756;BME280;32506;52.826;-1.192;2024-01-06T00:40:58;100455.28;;;5.87;73.34
46756;BME280;32506;52.826;-1.192;2024-01-06T00:43:23;100454.28;;;5.88;72.92
46756;BME280;32506;52.826;-1.192;2024-01-06T00:45:49;100459.59;;;5.88;72.70
46756;BME280;32506;52.826;-1.192;2024-01-06T00:48:14;100462.06;;;5.90;72.90
46756;BME280;32506;52.826;-1.192;2024-01-06T00:50:40;100466.56;;;5.90;73.25
46756;BME280;32506;52.826;-1.192;2024-01-06T00:53:05;100476.97;;;5.91;73.20
46756;BME280;32506;52.826;-1.192;2024-01-06T00:55:31;100475.13;;;5.92;72.90
46756;BME280;32506;52.826;-1.192;2024-01-06T00:57:56;100474.31;;;5.91;73.42
46756;BME280;32506;52.826;-1.192;2024-01-06T01:00:22;100476.13;;;5.91;73.02
46756;BME280;32506;52.826;-1.192;2024-01-06T01:02:48;100477.78;;;5.92;72.62
46756;BME280;32506;52.826;-1.192;2024-01-06T01:05:13;100489.22;;;5.92;73.08
46756;BME280;32506;52.826;-1.192;2024-01-06T01:07:39;100482.09;;;5.93;73.03
46756;BME280;32506;52.826;-1.192;2024-01-06T01:10:04;100484.75;;;5.93;72.82
46756;BME280;32506;52.826;-1.192;2024-01-06T01:12:31;100483.09;;;5.92;73.08
46756;BME280;32506;52.826;-1.192;2024-01-06T01:14:56;100483.91;;;5.92;72.76
46756;BME280;32506;52.826;-1.192;2024-01-06T01:17:22;100489.22;;;5.92;72.63
46756;BME280;32506;52.826;-1.192;2024-01-06T01:19:47;100485.75;;;5.92;72.79
46756;BME280;32506;52.826;-1.192;2024-01-06T01:22:13;100498.19;;;5.91;72.99
46756;BME280;32506;52.826;-1.192;2024-01-06T01:24:39;100502.47;;;5.92;72.85
46756;BME280;32506;52.826;-1.192;2024-01-06T01:27:05;100501.66;;;5.92;73.04
46756;BME280;32506;52.826;-1.192;2024-01-06T01:29:30;100506.97;;;5.92;72.98
46756;BME280;32506;52.826;-1.192;2024-01-06T01:31:56;100506.97;;;5.92;72.89
46756;BME280;32506;52.826;-1.192;2024-01-06T01:34:21;100510.44;;;5.92;72.54
46756;BME280;32506;52.826;-1.192;2024-01-06T01:36:46;100513.09;;;5.92;72.36
46756;BME280;32506;52.826;-1.192;2024-01-06T01:39:12;100518.38;;;5.92;73.27
46756;BME280;32506;52.826;-1.192;2024-01-06T01:41:37;100515.75;;;5.92;73.14
46756;BME280;32506;52.826;-1.192;2024-01-06T01:44:03;100519.22;;;5.93;72.94
46756;BME280;32506;52.826;-1.192;2024-01-06T01:46:30;100524.53;;;5.93;72.87
46756;BME280;32506;52.826;-1.192;2024-01-06T01:48:56;100520.03;;;5.93;73.15
46756;BME280;32506;52.826;-1.192;2024-01-06T01:51:24;100535.78;;;5.95;72.81
46756;BME280;32506;52.826;-1.192;2024-01-06T01:53:51;100526.19;;;5.94;73.11
46756;BME280;32506;52.826;-1.192;2024-01-06T01:56:17;100535.78;;;5.95;73.17
46756;BME280;32506;52.826;-1.192;2024-01-06T01:58:43;100541.09;;;5.95;72.69
46756;BME280;32506;52.826;-1.192;2024-01-06T02:01:09;100543.72;;;5.95;72.96
46756;BME280;32506;52.826;-1.192;2024-01-06T02:03:35;100548.03;;;5.96;73.04
46756;BME280;32506;52.826;-1.192;2024-01-06T02:06:01;100553.34;;;5.96;73.44
46756;BME280;32506;52.826;-1.192;2024-01-06T02:08:26;100551.53;;;5.96;72.93
46756;BME280;32506;52.826;-1.192;2024-01-06T02:10:54;100556.84;;;5.96;72.93
46756;BME280;32506;52.826;-1.192;2024-01-06T02:13:20;100556.84;;;5.96;72.89
46756;BME280;32506;52.826;-1.192;2024-01-06T02:15:45;100561.31;;;5.96;73.15
46756;BME280;32506;52.826;-1.192;2024-01-06T02:18:11;100565.63;;;5.97;73.34
46756;BME280;32506;52.826;-1.192;2024-01-06T02:20:36;100568.25;;;5.97;73.44
46756;BME280;32506;52.826;-1.192;2024-01-06T02:23:02;100581.53;;;5.97;72.76
46756;BME280;32506;52.826;-1.192;2024-01-06T02:25:27;100578.88;;;5.97;73.05
46756;BME280;32506;52.826;-1.192;2024-01-06T02:27:54;100584.19;;;5.97;73.01
46756;BME280;32506;52.826;-1.192;2024-01-06T02:30:19;100582.34;;;5.97;73.40
46756;BME280;32506;52.826;-1.192;2024-01-06T02:32:45;100583.22;;;5.98;73.22
46756;BME280;32506;52.826;-1.192;2024-01-06T02:35:10;100589.34;;;5.98;72.93
46756;BME280;32506;52.826;-1.192;2024-01-06T02:37:36;100592.94;;;5.97;73.28
46756;BME280;32506;52.826;-1.192;2024-01-06T02:40:02;100591.00;;;5.99;72.69
46756;BME280;32506;52.826;-1.192;2024-01-06T02:42:27;100594.63;;;5.98;73.15
46756;BME280;32506;52.826;-1.192;2024-01-06T02:44:53;100599.75;;;6.00;73.06
46756;BME280;32506;52.826;-1.192;2024-01-06T02:47:18;100604.25;;;5.99;73.30
46756;BME280;32506;52.826;-1.192;2024-01-06T02:49:43;100611.38;;;5.99;72.99
46756;BME280;32506;52.826;-1.192;2024-01-06T02:52:09;100604.44;;;5.98;73.55
46756;BME280;32506;52.826;-1.192;2024-01-06T02:54:34;100609.56;;;5.99;73.03
46756;BME280;32506;52.826;-1.192;2024-01-06T02:57:00;100621.16;;;5.98;72.99
46756;BME280;32506;52.826;-1.192;2024-01-06T02:59:25;100627.28;;;5.99;72.94
46756;BME280;32506;52.826;-1.192;2024-01-06T03:01:51;100633.44;;;5.99;73.18
46756;BME280;32506;52.826;-1.192;2024-01-06T03:04:16;100625.47;;;5.99;73.03
46756;BME280;32506;52.826;-1.192;2024-01-06T03:06:42;100625.47;;;5.99;72.58
46756;BME280;32506;52.826;-1.192;2024-01-06T03:09:07;100624.63;;;5.99;72.98
46756;BME280;32506;52.826;-1.192;2024-01-06T03:11:32;100629.13;;;5.98;72.89
46756;BME280;32506;52.826;-1.192;2024-01-06T03:13:58;100628.94;;;6.00;73.32
46756;BME280;32506;52.826;-1.192;2024-01-06T03:16:23;100628.94;;;6.00;73.54
46756;BME280;32506;52.826;-1.192;2024-01-06T03:18:49;100637.91;;;5.99;73.00
46756;BME280;32506;52.826;-1.192;2024-01-06T03:21:18;100637.91;;;5.99;73.60
46756;BME280;32506;52.826;-1.192;2024-01-06T03:23:45;100645.03;;;5.98;73.10
46756;BME280;32506;52.826;-1.192;2024-01-06T03:26:10;100640.72;;;5.97;73.17
46756;BME280;32506;52.826;-1.192;2024-01-06T03:28:36;100646.88;;;5.98;73.20
46756;BME280;32506;52.826;-1.192;2024-01-06T03:31:01;100645.19;;;5.97;73.02
46756;BME280;32506;52.826;-1.192;2024-01-06T03:33:26;100652.34;;;5.96;73.03
46756;BME280;32506;52.826;-1.192;2024-01-06T03:35:52;100650.50;;;5.97;72.74
46756;BME280;32506;52.826;-1.192;2024-01-06T03:38:17;100651.50;;;5.96;72.87
46756;BME280;32506;52.826;-1.192;2024-01-06T03:40:43;100654.16;;;5.96;72.67
46756;BME280;32506;52.826;-1.192;2024-01-06T03:43:08;100651.50;;;5.96;72.97
46756;BME280;32506;52.826;-1.192;2024-01-06T03:45:33;100665.78;;;5.95;72.88
46756;BME280;32506;52.826;-1.192;2024-01-06T03:47:59;100665.94;;;5.93;72.72
46756;BME280;32506;52.826;-1.192;2024-01-06T03:50:24;100674.75;;;5.94;73.44
46756;BME280;32506;52.826;-1.192;2024-01-06T03:52:50;100669.44;;;5.94;72.82
46756;BME280;32506;52.826;-1.192;2024-01-06T03:55:16;100674.75;;;5.94;73.14
46756;BME280;32506;52.826;-1.192;2024-01-06T03:57:41;100671.25;;;5.93;72.39
46756;BME280;32506;52.826;-1.192;2024-01-06T04:00:08;100675.75;;;5.93;73.22
46756;BME280;32506;52.826;-1.192;2024-01-06T04:02:33;100674.91;;;5.92;72.30
46756;BME280;32506;52.826;-1.192;2024-01-06T04:04:59;100682.06;;;5.92;72.80
46756;BME280;32506;52.826;-1.192;2024-01-06T04:07:24;100679.41;;;5.92;72.71
46756;BME280;32506;52.826;-1.192;2024-01-06T04:09:50;100687.53;;;5.90;72.81
46756;BME280;32506;52.826;-1.192;2024-01-06T04:12:15;100689.19;;;5.91;72.68
46756;BME280;32506;52.826;-1.192;2024-01-06T04:14:41;100693.66;;;5.91;72.58
46756;BME280;32506;52.826;-1.192;2024-01-06T04:17:06;100685.88;;;5.89;72.97
46756;BME280;32506;52.826;-1.192;2024-01-06T04:19:31;100695.69;;;5.88;72.61
46756;BME280;32506;52.826;-1.192;2024-01-06T04:21:57;100697.50;;;5.88;72.88
46756;BME280;32506;52.826;-1.192;2024-01-06T04:24:23;100686.06;;;5.87;72.71
46756;BME280;32506;52.826;-1.192;2024-01-06T04:26:50;100703.81;;;5.87;72.88
46756;BME280;32506;52.826;-1.192;2024-01-06T04:29:15;100702.81;;;5.88;72.68
46756;BME280;32506;52.826;-1.192;2024-01-06T04:31:41;100702.00;;;5.87;72.69
46756;BME280;32506;52.826;-1.192;2024-01-06T04:34:06;100703.81;;;5.87;72.61
46756;BME280;32506;52.826;-1.192;2024-01-06T04:36:32;100707.28;;;5.87;72.95
46756;BME280;32506;52.826;-1.192;2024-01-06T04:38:57;100700.34;;;5.86;73.29
46756;BME280;32506;52.826;-1.192;2024-01-06T04:41:23;100702.16;;;5.86;73.26
46756;BME280;32506;52.826;-1.192;2024-01-06T04:43:48;100703.97;;;5.85;72.79
46756;BME280;32506;52.826;-1.192;2024-01-06T04:46:14;100700.50;;;5.85;72.92
46756;BME280;32506;52.826;-1.192;2024-01-06T04:48:41;100703.16;;;5.85;72.71
46756;BME280;32506;52.826;-1.192;2024-01-06T04:51:07;100708.47;;;5.85;73.09
46756;BME280;32506;52.826;-1.192;2024-01-06T04:53:36;100711.13;;;5.85;72.70
46756;BME280;32506;52.826;-1.192;2024-01-06T04:56:01;100709.47;;;5.84;72.84
46756;BME280;32506;52.826;-1.192;2024-01-06T04:58:27;100711.31;;;5.83;73.04
46756;BME280;32506;52.826;-1.192;2024-01-06T05:00:52;100718.44;;;5.83;72.71
46756;BME280;32506;52.826;-1.192;2024-01-06T05:03:18;100718.59;;;5.81;72.47
46756;BME280;32506;52.826;-1.192;2024-01-06T05:05:43;100718.59;;;5.81;72.65
46756;BME280;32506;52.826;-1.192;2024-01-06T05:08:09;100725.75;;;5.81;72.81
46756;BME280;32506;52.826;-1.192;2024-01-06T05:10:34;100728.59;;;5.79;72.40
46756;BME280;32506;52.826;-1.192;2024-01-06T05:13:00;100722.44;;;5.79;72.71
46756;BME280;32506;52.826;-1.192;2024-01-06T05:15:25;100727.91;;;5.77;72.58
46756;BME280;32506;52.826;-1.192;2024-01-06T05:17:51;100728.75;;;5.78;72.31
46756;BME280;32506;52.826;-1.192;2024-01-06T05:20:17;100734.25;;;5.76;72.47
46756;BME280;32506;52.826;-1.192;2024-01-06T05:22:42;100736.91;;;5.76;72.68
46756;BME280;32506;52.826;-1.192;2024-01-06T05:25:08;100730.94;;;5.74;72.49
46756;BME280;32506;52.826;-1.192;2024-01-06T05:27:34;100737.06;;;5.75;72.21
46756;BME280;32506;52.826;-1.192;2024-01-06T05:29:59;100744.38;;;5.72;72.63
46756;BME280;32506;52.826;-1.192;2024-01-06T05:32:25;100745.19;;;5.73;72.57
46756;BME280;32506;52.826;-1.192;2024-01-06T05:34:50;100742.72;;;5.71;72.11
46756;BME280;32506;52.826;-1.192;2024-01-06T05:37:16;100752.69;;;5.69;72.52
46756;BME280;32506;52.826;-1.192;2024-01-06T05:39:41;100749.19;;;5.69;72.20
46756;BME280;32506;52.826;-1.192;2024-01-06T05:42:09;100756.53;;;5.67;71.80
46756;BME280;32506;52.826;-1.192;2024-01-06T05:44:37;100763.81;;;5.65;72.01
46756;BME280;32506;52.826;-1.192;2024-01-06T05:47:03;100761.34;;;5.63;71.91
46756;BME280;32506;52.826;-1.192;2024-01-06T05:49:28;100768.63;;;5.61;71.74
46756;BME280;32506;52.826;-1.192;2024-01-06T05:51:54;100763.69;;;5.58;72.22
46756;BME280;32506;52.826;-1.192;2024-01-06T05:54:19;100774.28;;;5.58;72.15
46756;BME280;32506;52.826;-1.192;2024-01-06T05:56:44;100778.78;;;5.58;72.11
46756;BME280;32506;52.826;-1.192;2024-01-06T05:59:10;100784.41;;;5.54;71.89
46756;BME280;32506;52.826;-1.192;2024-01-06T06:01:35;100783.59;;;5.54;71.67
46756;BME280;32506;52.826;-1.192;2024-01-06T06:04:01;100782.78;;;5.53;71.60
46756;BME280;32506;52.826;-1.192;2024-01-06T06:06:26;100784.97;;;5.50;71.84
46756;BME280;32506;52.826;-1.192;2024-01-06T06:08:52;100788.41;;;5.50;71.64
46756;BME280;32506;52.826;-1.192;2024-01-06T06:11:17;100790.44;;;5.48;71.64
46756;BME280;32506;52.826;-1.192;2024-01-06T06:13:43;100796.72;;;5.47;71.98
46756;BME280;32506;52.826;-1.192;2024-01-06T06:16:10;100795.91;;;5.47;72.22
46756;BME280;32506;52.826;-1.192;2024-01-06T06:18:37;100798.75;;;5.45;72.14
46756;BME280;32506;52.826;-1.192;2024-01-06T06:21:03;100802.38;;;5.44;71.69
46756;BME280;32506;52.826;-1.192;2024-01-06T06:23:30;100806.84;;;5.44;71.79
46756;BME280;32506;52.826;-1.192;2024-01-06T06:25:55;100804.38;;;5.42;71.92
46756;BME280;32506;52.826;-1.192;2024-01-06T06:28:21;100804.56;;;5.41;71.79
46756;BME280;32506;52.826;-1.192;2024-01-06T06:30:46;100806.56;;;5.38;71.74
46756;BME280;32506;52.826;-1.192;2024-01-06T06:33:12;100819.16;;;5.36;71.57
46756;BME280;32506;52.826;-1.192;2024-01-06T06:35:37;100822.16;;;5.33;71.49
46756;BME280;32506;52.826;-1.192;2024-01-06T06:38:03;100826.78;;;5.31;71.05
46756;BME280;32506;52.826;-1.192;2024-01-06T06:40:28;100830.59;;;5.29;71.23
46756;BME280;32506;52.826;-1.192;2024-01-06T06:42:55;100837.06;;;5.26;71.11
46756;BME280;32506;52.826;-1.192;2024-01-06T06:45:20;100842.72;;;5.23;70.92
46756;BME280;32506;52.826;-1.192;2024-01-06T06:47:48;100849.00;;;5.22;71.01
46756;BME280;32506;52.826;-1.192;2024-01-06T06:50:16;100853.19;;;5.16;70.50
46756;BME280;32506;52.826;-1.192;2024-01-06T06:52:41;100853.34;;;5.15;70.46
46756;BME280;32506;52.826;-1.192;2024-01-06T06:55:07;100858.16;;;5.11;69.97
46756;BME280;32506;52.826;-1.192;2024-01-06T06:57:33;100860.34;;;5.08;70.55
46756;BME280;32506;52.826;-1.192;2024-01-06T06:59:59;100860.66;;;5.04;69.88
46756;BME280;32506;52.826;-1.192;2024-01-06T07:02:25;100859.16;;;5.02;70.49
46756;BME280;32506;52.826;-1.192;2024-01-06T07:04:51;100874.59;;;4.98;69.92
46756;BME280;32506;52.826;-1.192;2024-01-06T07:07:16;100878.59;;;4.94;69.76
46756;BME280;32506;52.826;-1.192;2024-01-06T07:09:42;100880.72;;;4.91;70.08
46756;BME280;32506;52.826;-1.192;2024-01-06T07:12:07;100894.31;;;4.87;70.00
46756;BME280;32506;52.826;-1.192;2024-01-06T07:14:33;100892.97;;;4.83;69.76
46756;BME280;32506;52.826;-1.192;2024-01-06T07:16:58;100908.22;;;4.81;69.92
46756;BME280;32506;52.826;-1.192;2024-01-06T07:19:24;100910.34;;;4.78;69.58
46756;BME280;32506;52.826;-1.192;2024-01-06T07:21:50;100915.19;;;4.74;69.71
46756;BME280;32506;52.826;-1.192;2024-01-06T07:24:15;100914.69;;;4.70;69.62
46756;BME280;32506;52.826;-1.192;2024-01-06T07:26:41;100919.47;;;4.67;69.66
46756;BME280;32506;52.826;-1.192;2024-01-06T07:29:06;100927.59;;;4.65;69.99
46756;BME280;32506;52.826;-1.192;2024-01-06T07:31:33;100924.59;;;4.60;69.74
46756;BME280;32506;52.826;-1.192;2024-01-06T07:33:59;100930.22;;;4.57;69.62
46756;BME280;32506;52.826;-1.192;2024-01-06T07:36:25;100936.00;;;4.52;69.45
46756;BME280;32506;52.826;-1.192;2024-01-06T07:38:50;100939.84;;;4.50;69.79
46756;BME280;32506;52.826;-1.192;2024-01-06T07:41:17;100941.13;;;4.46;69.70
46756;BME280;32506;52.826;-1.192;2024-01-06T07:43:43;100950.25;;;4.43;69.67
46756;BME280;32506;52.826;-1.192;2024-01-06T07:46:08;100960.31;;;4.40;69.81
46756;BME280;32506;52.826;-1.192;2024-01-06T07:48:35;100955.38;;;4.36;69.27
46756;BME280;32506;52.826;-1.192;2024-01-06T07:51:01;100964.28;;;4.35;69.51
46756;BME280;32506;52.826;-1.192;2024-01-06T07:53:28;100958.66;;;4.30;69.44
46756;BME280;32506;52.826;-1.192;2024-01-06T07:55:54;100970.38;;;4.28;69.66
46756;BME280;32506;52.826;-1.192;2024-01-06T07:58:19;100972.38;;;4.26;69.48
46756;BME280;32506;52.826;-1.192;2024-01-06T08:00:45;100979.81;;;4.22;69.35
46756;BME280;32506;52.826;-1.192;2024-01-06T08:03:10;100977.47;;;4.19;69.67
46756;BME280;32506;52.826;-1.192;2024-01-06T08:05:36;100982.09;;;4.17;69.79
46756;BME280;32506;52.826;-1.192;2024-01-06T08:08:03;100986.88;;;4.13;69.64
46756;BME280;32506;52.826;-1.192;2024-01-06T08:10:29;100987.88;;;4.12;69.68
46756;BME280;32506;52.826;-1.192;2024-01-06T08:12:55;101000.44;;;4.10;69.77
46756;BME280;32506;52.826;-1.192;2024-01-06T08:15:20;101004.22;;;4.08;69.92
46756;BME280;32506;52.826;-1.192;2024-01-06T08:17:45;101012.31;;;4.06;69.72
46756;BME280;32506;52.826;-1.192;2024-01-06T08:20:12;101014.44;;;4.02;69.91
46756;BME280;32506;52.826;-1.192;2024-01-06T08:22:38;101021.72;;;4.00;69.96
46756;BME280;32506;52.826;-1.192;2024-01-06T08:25:04;101023.69;;;3.98;69.77
46756;BME280;32506;52.826;-1.192;2024-01-06T08:27:32;101030.97;;;3.96;69.66
46756;BME280;32506;52.826;-1.192;2024-01-06T08:29:58;101036.38;;;3.95;69.95
46756;BME280;32506;52.826;-1.192;2024-01-06T08:32:23;101040.03;;;3.94;69.91
46756;BME280;32506;52.826;-1.192;2024-01-06T08:34:48;101039.50;;;3.90;69.89
46756;BME280;32506;52.826;-1.192;2024-01-06T08:37:14;101046.75;;;3.88;69.98
46756;BME280;32506;52.826;-1.192;2024-01-06T08:39:39;101060.00;;;3.88;70.10
46756;BME280;32506;52.826;-1.192;2024-01-06T08:42:05;101059.50;;;3.84;70.15
46756;BME280;32506;52.826;-1.192;2024-01-06T08:44:30;101059.50;;;3.84;69.74
46756;BME280;32506;52.826;-1.192;2024-01-06T08:46:56;101070.22;;;3.83;69.95
46756;BME280;32506;52.826;-1.192;2024-01-06T08:49:21;101064.09;;;3.82;70.23
46756;BME280;32506;52.826;-1.192;2024-01-06T08:51:47;101070.38;;;3.81;69.95
46756;BME280;32506;52.826;-1.192;2024-01-06T08:54:12;101071.38;;;3.80;69.95
46756;BME280;32506;52.826;-1.192;2024-01-06T08:56:38;101067.22;;;3.78;69.93
46756;BME280;32506;52.826;-1.192;2024-01-06T08:59:03;101082.25;;;3.77;70.07
46756;BME280;32506;52.826;-1.192;2024-01-06T09:01:29;101085.03;;;3.76;70.04
46756;BME280;32506;52.826;-1.192;2024-01-06T09:03:56;101082.41;;;3.76;69.91
46756;BME280;32506;52.826;-1.192;2024-01-06T09:06:22;101089.50;;;3.75;69.70
46756;BME280;32506;52.826;-1.192;2024-01-06T09:08:48;101089.50;;;3.75;70.09
46756;BME280;32506;52.826;-1.192;2024-01-06T09:11:13;101094.81;;;3.75;70.11
46756;BME280;32506;52.826;-1.192;2024-01-06T09:13:39;101099.09;;;3.76;69.83
46756;BME280;32506;52.826;-1.192;2024-01-06T09:16:04;101095.47;;;3.77;69.73
46756;BME280;32506;52.826;-1.192;2024-01-06T09:18:30;101104.06;;;3.79;70.51
46756;BME280;32506;52.826;-1.192;2024-01-06T09:20:55;101108.22;;;3.82;69.99
46756;BME280;32506;52.826;-1.192;2024-01-06T09:23:22;101113.34;;;3.83;70.26
46756;BME280;32506;52.826;-1.192;2024-01-06T09:25:48;101117.34;;;3.88;70.57
46756;BME280;32506;52.826;-1.192;2024-01-06T09:28:17;101126.78;;;3.90;70.25
46756;BME280;32506;52.826;-1.192;2024-01-06T09:30:43;101126.31;;;3.95;70.51
46756;BME280;32506;52.826;-1.192;2024-01-06T09:33:08;101128.34;;;4.01;69.79
46756;BME280;32506;52.826;-1.192;2024-01-06T09:35:34;101134.66;;;4.08;70.79
46756;BME280;32506;52.826;-1.192;2024-01-06T09:38:00;101133.88;;;4.16;70.40
46756;BME280;32506;52.826;-1.192;2024-01-06T09:40:25;101135.44;;;4.27;70.61
46756;BME280;32506;52.826;-1.192;2024-01-06T09:42:51;101135.66;;;4.42;70.28
46756;BME280;32506;52.826;-1.192;2024-01-06T09:45:19;101140.03;;;4.59;70.01
46756;BME280;32506;52.826;-1.192;2024-01-06T09:47:49;101138.63;;;4.81;69.61
46756;BME280;32506;52.826;-1.192;2024-01-06T09:50:18;101134.88;;;5.09;68.87
46756;BME280;32506;52.826;-1.192;2024-01-06T09:52:45;101138.38;;;5.42;67.72
46756;BME280;32506;52.826;-1.192;2024-01-06T09:55:18;101135.72;;;5.83;66.80
46756;BME280;32506;52.826;-1.192;2024-01-06T09:57:47;101145.78;;;6.29;65.57
46756;BME280;32506;52.826;-1.192;2024-01-06T10:00:13;101149.59;;;6.75;64.21
46756;BME280;32506;52.826;-1.192;2024-01-06T10:02:39;101155.88;;;7.13;63.38
46756;BME280;32506;52.826;-1.192;2024-01-06T10:05:06;101159.66;;;7.42;62.94
46756;BME280;32506;52.826;-1.192;2024-01-06T10:07:31;101161.06;;;7.53;62.29
46756;BME280;32506;52.826;-1.192;2024-01-06T10:09:57;101165.25;;;7.47;62.33
46756;BME280;32506;52.826;-1.192;2024-01-06T10:12:26;101173.56;;;7.29;62.96
46756;BME280;32506;52.826;-1.192;2024-01-06T10:14:52;101172.16;;;7.10;63.43
46756;BME280;32506;52.826;-1.192;2024-01-06T10:17:18;101173.56;;;6.98;63.77
46756;BME280;32506;52.826;-1.192;2024-01-06T10:19:45;101183.28;;;6.82;64.21
46756;BME280;32506;52.826;-1.192;2024-01-06T10:22:11;101186.47;;;6.69;64.92
46756;BME280;32506;52.826;-1.192;2024-01-06T10:24:37;101183.19;;;6.59;65.21
46756;BME280;32506;52.826;-1.192;2024-01-06T10:27:03;101190.00;;;6.53;65.47
46756;BME280;32506;52.826;-1.192;2024-01-06T10:29:29;101187.72;;;6.50;66.14
46756;BME280;32506;52.826;-1.192;2024-01-06T10:31:54;101187.38;;;6.45;66.83
46756;BME280;32506;52.826;-1.192;2024-01-06T10:34:21;101185.09;;;6.42;66.87
46756;BME280;32506;52.826;-1.192;2024-01-06T10:36:46;101188.06;;;6.39;67.29
46756;BME280;32506;52.826;-1.192;2024-01-06T10:39:13;101187.25;;;6.38;67.52
46756;BME280;32506;52.826;-1.192;2024-01-06T10:41:41;101195.22;;;6.38;68.15
46756;BME280;32506;52.826;-1.192;2024-01-06T10:44:09;101188.72;;;6.41;68.17
46756;BME280;32506;52.826;-1.192;2024-01-06T10:46:36;101194.38;;;6.46;68.24
46756;BME280;32506;52.826;-1.192;2024-01-06T10:49:02;101187.00;;;6.57;68.88
46756;BME280;32506;52.826;-1.192;2024-01-06T10:51:31;101199.56;;;6.71;68.91
46756;BME280;32506;52.826;-1.192;2024-01-06T10:54:00;101201.34;;;6.87;69.27
46756;BME280;32506;52.826;-1.192;2024-01-06T10:56:26;101199.09;;;7.07;69.17
46756;BME280;32506;52.826;-1.192;2024-01-06T10:58:53;101200.78;;;7.31;68.39
46756;BME280;32506;52.826;-1.192;2024-01-06T11:01:21;101201.91;;;7.60;68.40
46756;BME280;32506;52.826;-1.192;2024-01-06T11:03:48;101206.78;;;7.95;68.03
46756;BME280;32506;52.826;-1.192;2024-01-06T11:06:14;101198.69;;;8.26;67.20
46756;BME280;32506;52.826;-1.192;2024-01-06T11:11:24;101212.94;;;8.93;66.28
46756;BME280;32506;52.826;-1.192;2024-01-06T11:13:50;101211.84;;;9.24;65.59
46756;BME280;32506;52.826;-1.192;2024-01-06T11:16:35;101201.31;;;9.59;65.21
46756;BME280;32506;52.826;-1.192;2024-01-06T11:19:01;101200.72;;;9.85;64.86
46756;BME280;32506;52.826;-1.192;2024-01-06T11:21:27;101196.06;;;10.22;64.91
46756;BME280;32506;52.826;-1.192;2024-01-06T11:26:32;101202.47;;;11.05;63.83
46756;BME280;32506;52.826;-1.192;2024-01-06T11:29:00;101204.63;;;11.36;63.46
46756;BME280;32506;52.826;-1.192;2024-01-06T11:31:30;101209.41;;;11.61;63.13
46756;BME280;32506;52.826;-1.192;2024-01-06T11:33:56;101210.84;;;11.84;62.80
46756;BME280;32506;52.826;-1.192;2024-01-06T11:36:22;101212.94;;;12.08;62.52
46756;BME280;32506;52.826;-1.192;2024-01-06T11:38:47;101213.94;;;12.41;62.23
46756;BME280;32506;52.826;-1.192;2024-01-06T11:41:50;101216.06;;;12.91;61.47
46756;BME280;32506;52.826;-1.192;2024-01-06T11:44:22;101214.34;;;13.49;60.36
46756;BME280;32506;52.826;-1.192;2024-01-06T11:46:48;101210.50;;;14.14;59.50
46756;BME280;32506;52.826;-1.192;2024-01-06T11:49:20;101212.28;;;14.82;58.18
46756;BME280;32506;52.826;-1.192;2024-01-06T11:51:46;101212.34;;;15.55;56.70
46756;BME280;32506;52.826;-1.192;2024-01-06T11:54:11;101216.00;;;16.26;54.95
46756;BME280;32506;52.826;-1.192;2024-01-06T11:56:38;101205.84;;;16.69;54.34
46756;BME280;32506;52.826;-1.192;2024-01-06T11:59:03;101205.91;;;17.27;53.68
46756;BME280;32506;52.826;-1.192;2024-01-06T12:01:36;101204.47;;;18.04;52.42
46756;BME280;32506;52.826;-1.192;2024-01-06T12:04:03;101204.88;;;18.74;51.09
46756;BME280;32506;52.826;-1.192;2024-01-06T12:06:31;101210.28;;;19.46;49.92
46756;BME280;32506;52.826;-1.192;2024-01-06T12:09:04;101213.28;;;20.15;48.60
46756;BME280;32506;52.826;-1.192;2024-01-06T12:11:30;101217.06;;;20.67;47.79
46756;BME280;32506;52.826;-1.192;2024-01-06T12:13:55;101213.38;;;20.83;46.68
46756;BME280;32506;52.826;-1.192;2024-01-06T12:16:22;101209.66;;;20.47;47.05
46756;BME280;32506;52.826;-1.192;2024-01-06T12:18:47;101214.97;;;19.88;49.37
46756;BME280;32506;52.826;-1.192;2024-01-06T12:21:13;101217.13;;;19.81;49.38
46756;BME280;32506;52.826;-1.192;2024-01-06T12:23:38;101206.94;;;19.66;48.73
46756;BME280;32506;52.826;-1.192;2024-01-06T12:26:04;101210.50;;;19.39;51.06
46756;BME280;32506;52.826;-1.192;2024-01-06T12:28:29;101210.13;;;19.58;51.49
46756;BME280;32506;52.826;-1.192;2024-01-06T12:30:55;101213.34;;;19.87;50.18
46756;BME280;32506;52.826;-1.192;2024-01-06T12:33:20;101207.19;;;19.97;50.23
46756;BME280;32506;52.826;-1.192;2024-01-06T12:35:46;101215.84;;;19.94;51.31
46756;BME280;32506;52.826;-1.192;2024-01-06T12:38:11;101214.22;;;19.98;51.76
46756;BME280;32506;52.826;-1.192;2024-01-06T12:40:37;101214.28;;;20.03;51.49
46756;BME280;32506;52.826;-1.192;2024-01-06T12:43:06;101212.94;;;20.06;51.19
46756;BME280;32506;52.826;-1.192;2024-01-06T12:45:31;101216.63;;;19.89;51.38
46756;BME280;32506;52.826;-1.192;2024-01-06T12:47:57;101217.41;;;19.57;52.38